Time;durP1;ratioP1;P1;durP2;ratioP2;P2;SDS_P1;SDS_P2;PMS_P1;PMS_P2;Temp;Humidity;BMP_temperature;BMP_pressure;BME280_temperature;BME280_humidity;BME280_pressure;Samples;Min_cycle;Max_cycle;Signal;HPM_P1;HPM_P2
2022/01/08 00:01:54;;;;;;;5.55;3.08;;;0.30;99.90;;;;;;5027155;28;20097;-76
2022/01/08 00:04:20;;;;;;;6.93;3.60;;;0.40;99.90;;;;;;5027206;28;20056;-76
2022/01/08 00:06:45;;;;;;;5.80;3.35;;;0.40;99.90;;;;;;5026880;28;20026;-76
2022/01/08 00:09:11;;;;;;;5.63;3.30;;;0.30;99.90;;;;;;5026841;28;20113;-76
2022/01/08 00:11:40;;;;;;;7.75;3.35;;;0.20;99.90;;;;;;5026889;28;20094;-76
2022/01/08 00:14:06;;;;;;;10.02;3.38;;;0.20;99.90;;;;;;5026918;28;20064;-76
2022/01/08 00:16:33;;;;;;;6.28;3.75;;;0.20;99.90;;;;;;5026802;28;20029;-76
2022/01/08 00:18:59;;;;;;;9.65;4.25;;;0.20;99.90;;;;;;5026731;28;20034;-76
2022/01/08 00:21:25;;;;;;;7.18;4.10;;;0.20;99.90;;;;;;5026774;28;20082;-76
2022/01/08 00:23:50;;;;;;;6.68;4.07;;;0.10;99.90;;;;;;5026520;28;20033;-76
2022/01/08 00:26:16;;;;;;;7.18;3.95;;;0.10;99.90;;;;;;5026489;28;20034;-77
2022/01/08 00:28:42;;;;;;;5.90;4.05;;;0.10;99.90;;;;;;5026634;28;20029;-77
2022/01/08 00:31:10;;;;;;;10.32;4.35;;;0.00;99.90;;;;;;5026441;28;20041;-76
2022/01/08 00:33:37;;;;;;;11.95;5.15;;;0.10;99.90;;;;;;5026531;28;20030;-76
2022/01/08 00:36:04;;;;;;;9.35;4.97;;;0.00;99.90;;;;;;5026285;28;20026;-76
2022/01/08 00:38:30;;;;;;;8.38;3.85;;;-0.10;99.90;;;;;;5026472;28;20054;-77
2022/01/08 00:40:56;;;;;;;9.32;4.75;;;-0.10;99.90;;;;;;5026473;28;20034;-77
2022/01/08 00:43:21;;;;;;;9.05;4.00;;;-0.20;99.90;;;;;;5008814;28;20041;-76
2022/01/08 00:45:47;;;;;;;8.68;4.00;;;-0.20;99.90;;;;;;5008564;28;20036;-77
2022/01/08 00:48:13;;;;;;;7.78;3.63;;;-0.30;99.90;;;;;;5026322;28;20040;-76
2022/01/08 00:50:38;;;;;;;6.47;3.45;;;-0.30;99.90;;;;;;5008642;28;20029;-77
2022/01/08 00:53:04;;;;;;;7.32;3.88;;;-0.30;99.90;;;;;;5008686;28;20053;-77
2022/01/08 00:55:30;;;;;;;6.55;3.63;;;-0.30;99.90;;;;;;5025924;28;20038;-77
2022/01/08 00:57:56;;;;;;;7.90;4.05;;;-0.20;99.90;;;;;;5047384;22;20053;-77
2022/01/08 01:00:22;;;;;;;8.77;3.85;;;-0.30;99.90;;;;;;5012113;28;20064;-77
2022/01/08 01:02:48;;;;;;;6.63;3.80;;;-0.40;99.90;;;;;;5028341;28;20037;-77
2022/01/08 01:05:13;;;;;;;12.27;4.00;;;-0.30;99.90;;;;;;5046161;28;20433;-77
2022/01/08 01:07:39;;;;;;;5.07;2.92;;;-0.40;99.90;;;;;;5028516;28;20097;-77
2022/01/08 01:10:07;;;;;;;8.43;3.22;;;-0.40;99.90;;;;;;5046018;28;20433;-77
2022/01/08 01:12:33;;;;;;;8.13;3.70;;;-0.30;99.90;;;;;;5044900;28;20092;-77
2022/01/08 01:14:58;;;;;;;8.95;3.72;;;-0.30;99.90;;;;;;5028465;28;20033;-76
2022/01/08 01:17:24;;;;;;;8.98;3.88;;;-0.40;99.90;;;;;;5046047;28;20034;-77
2022/01/08 01:19:50;;;;;;;8.25;4.95;;;-0.40;99.90;;;;;;5046117;28;20021;-77
2022/01/08 01:22:19;;;;;;;10.38;4.53;;;-0.30;99.90;;;;;;5045990;28;20033;-78
2022/01/08 01:24:46;;;;;;;10.23;4.82;;;-0.40;99.90;;;;;;5045839;28;20025;-77
2022/01/08 01:30:05;;;;;;;8.77;3.88;;;-0.50;99.90;;;;;;5046022;28;20045;-77
2022/01/08 01:48:59;;;;;;;6.68;3.50;;;-0.50;99.90;;;;;;5045457;28;20044;-77
2022/01/08 01:51:24;;;;;;;7.25;3.60;;;-0.60;99.90;;;;;;5043919;28;20057;-77
2022/01/08 01:53:51;;;;;;;9.48;4.18;;;-0.60;99.90;;;;;;5045493;28;20041;-77
2022/01/08 01:56:18;;;;;;;8.77;4.47;;;-0.50;99.90;;;;;;5044857;28;20033;-77
2022/01/08 01:58:44;;;;;;;6.45;3.63;;;-0.50;99.90;;;;;;5045113;28;20060;-77
2022/01/08 02:01:10;;;;;;;8.90;5.00;;;-0.50;99.90;;;;;;5045171;28;20034;-77
2022/01/08 02:03:36;;;;;;;8.98;4.47;;;-0.40;99.90;;;;;;5045229;28;20061;-77
2022/01/08 02:06:02;;;;;;;12.05;4.55;;;-0.60;99.90;;;;;;5044939;28;20033;-77
2022/01/08 02:08:29;;;;;;;9.30;4.43;;;-0.50;99.90;;;;;;5045189;28;20029;-77
2022/01/08 02:10:54;;;;;;;9.45;4.28;;;-0.70;99.90;;;;;;5045013;28;20120;-77
2022/01/08 02:13:28;;;;;;;9.65;4.60;;;-0.70;99.90;;;;;;5027507;28;20048;-77
2022/01/08 02:15:55;;;;;;;5.88;3.65;;;-0.80;99.90;;;;;;5048787;28;20152;-77
2022/01/08 02:18:23;;;;;;;9.05;3.95;;;-0.80;99.90;;;;;;5031100;28;20034;-77
2022/01/08 02:20:49;;;;;;;8.15;3.80;;;-0.80;99.90;;;;;;5049009;28;20037;-77
2022/01/08 02:23:15;;;;;;;6.72;3.95;;;-0.70;99.90;;;;;;5048960;28;20060;-77
2022/01/08 02:25:41;;;;;;;7.28;4.68;;;-0.80;99.90;;;;;;5047360;28;20033;-77
2022/01/08 02:28:07;;;;;;;7.15;4.20;;;-0.90;99.90;;;;;;5048609;28;20277;-77
2022/01/08 02:30:33;;;;;;;7.85;3.75;;;-0.80;99.90;;;;;;5031093;28;20025;-77
2022/01/08 02:32:58;;;;;;;7.43;4.22;;;-0.80;99.90;;;;;;5048455;28;20076;-77
2022/01/08 02:35:25;;;;;;;8.05;3.92;;;-0.90;99.90;;;;;;5048568;28;20032;-77
2022/01/08 02:37:51;;;;;;;8.57;4.50;;;-0.90;99.90;;;;;;5048621;28;20114;-77
2022/01/08 02:40:21;;;;;;;8.73;4.07;;;-0.90;99.90;;;;;;5048559;28;20041;-77
2022/01/08 02:42:53;;;;;;;7.28;3.33;;;-0.90;99.90;;;;;;5048466;28;20501;-77
2022/01/08 02:45:21;;;;;;;5.45;3.10;;;-0.90;99.90;;;;;;5030569;28;20101;-77
2022/01/08 02:47:47;;;;;;;8.00;3.50;;;-1.00;99.90;;;;;;5030618;28;20059;-77
2022/01/08 02:50:15;;;;;;;5.45;3.45;;;-0.90;99.90;;;;;;5048365;28;20021;-77
2022/01/08 02:52:45;;;;;;;9.20;3.95;;;-0.90;99.90;;;;;;5030428;28;20048;-77
2022/01/08 02:55:12;;;;;;;;;;;-1.00;99.90;;;;;;5048613;28;20026;-78
2022/01/08 02:57:38;;;;;;;8.40;3.47;;;-0.90;99.90;;;;;;5047883;28;19920;-79
2022/01/08 03:00:07;;;;;;;7.63;4.07;;;-0.60;99.90;;;;;;5048285;28;20029;-77
2022/01/08 03:02:33;;;;;;;8.70;4.38;;;-0.60;99.90;;;;;;5048192;28;20038;-77
2022/01/08 03:04:59;;;;;;;6.95;4.20;;;-0.40;99.90;;;;;;5048132;28;20041;-77
2022/01/08 03:07:24;;;;;;;8.35;4.70;;;-0.40;99.90;;;;;;5030359;28;20025;-77
2022/01/08 03:09:57;;;;;;;6.50;3.95;;;-0.60;99.90;;;;;;5048205;28;20153;-77
2022/01/08 03:12:27;;;;;;;9.15;4.28;;;-0.80;99.90;;;;;;5029998;28;20413;-77
2022/01/08 03:14:54;;;;;;;8.38;4.57;;;-0.90;99.90;;;;;;5048069;28;20083;-77
2022/01/08 03:17:20;;;;;;;9.02;4.57;;;-1.00;99.90;;;;;;5046663;28;20029;-77
2022/01/08 03:19:45;;;;;;;9.27;3.67;;;-0.90;99.90;;;;;;5047968;28;20033;-77
2022/01/08 03:22:11;;;;;;;7.78;3.70;;;-0.90;99.90;;;;;;5046639;28;20197;-77
2022/01/08 03:24:39;;;;;;;8.70;3.80;;;-1.10;99.90;;;;;;5029696;28;20041;-77
2022/01/08 03:27:05;;;;;;;5.82;3.53;;;-1.10;99.90;;;;;;5029876;28;20099;-78
2022/01/08 03:29:31;;;;;;;8.32;3.80;;;-1.10;99.90;;;;;;5029923;28;20068;-77
2022/01/08 03:31:56;;;;;;;8.43;4.35;;;-1.00;99.90;;;;;;5047643;28;20406;-77
2022/01/08 03:34:22;;;;;;;7.30;3.35;;;-0.90;99.90;;;;;;5047598;28;20482;-77
2022/01/08 03:36:47;;;;;;;7.90;3.75;;;-0.90;99.90;;;;;;5047579;28;20484;-77
2022/01/08 03:39:13;;;;;;;7.15;3.90;;;-0.90;99.90;;;;;;5047551;28;20029;-77
2022/01/08 03:41:39;;;;;;;9.32;4.75;;;-0.80;99.90;;;;;;5029840;28;20034;-77
2022/01/08 03:44:05;;;;;;;9.45;4.20;;;-0.70;99.90;;;;;;5045985;28;20121;-77
2022/01/08 03:46:35;;;;;;;8.88;4.63;;;-0.70;99.90;;;;;;5047409;28;20043;-78
2022/01/08 03:51:26;;;;;;;6.35;3.75;;;-0.50;99.90;;;;;;5030688;28;20038;-77
2022/01/08 03:53:52;;;;;;;11.15;4.93;;;-0.40;99.90;;;;;;5047218;28;20038;-77
2022/01/08 03:56:17;;;;;;;11.02;5.22;;;-0.20;99.90;;;;;;5048574;28;20032;-77
2022/01/08 03:58:43;;;;;;;7.53;4.15;;;-0.20;99.90;;;;;;5030938;28;20049;-78
2022/01/08 04:01:09;;;;;;;9.60;4.30;;;-0.20;99.90;;;;;;5048809;28;20083;-77
2022/01/08 04:03:34;;;;;;;7.88;4.10;;;-0.30;99.90;;;;;;5047099;28;20036;-77
2022/01/08 04:06:00;;;;;;;7.68;3.63;;;-0.40;99.90;;;;;;5047133;28;20033;-78
2022/01/08 04:08:26;;;;;;;7.25;3.90;;;-0.40;99.90;;;;;;5045691;28;20029;-78
2022/01/08 04:10:52;;;;;;;6.03;3.10;;;-0.70;99.90;;;;;;5047046;28;20059;-77
2022/01/08 04:13:23;;;;;;;6.95;3.40;;;-0.70;99.90;;;;;;5029009;28;20073;-78
2022/01/08 04:15:52;;;;;;;7.68;3.38;;;-0.80;99.90;;;;;;5029100;28;20030;-78
2022/01/08 04:18:18;;;;;;;7.45;3.67;;;-0.70;99.90;;;;;;5029083;28;20033;-78
2022/01/08 04:21:23;;;;;;;6.93;3.42;;;-0.80;99.90;;;;;;5028963;28;20060;-77
2022/01/08 04:23:47;;;;;;;7.40;3.22;;;-0.80;99.90;;;;;;5028868;28;20037;-77
2022/01/08 04:26:13;;;;;;;7.75;3.30;;;-0.80;99.90;;;;;;5046409;28;20029;-77
2022/01/08 04:28:39;;;;;;;8.90;3.35;;;-0.90;99.90;;;;;;5046473;28;20093;-77
2022/01/08 04:31:04;;;;;;;6.10;3.10;;;-1.00;99.90;;;;;;5046706;28;20029;-77
2022/01/08 04:33:30;;;;;;;4.63;3.45;;;-0.90;99.90;;;;;;5046329;28;20045;-77
2022/01/08 04:35:55;;;;;;;8.00;4.00;;;-1.00;99.90;;;;;;5046445;28;20053;-77
2022/01/08 04:38:22;;;;;;;7.38;3.15;;;-1.10;99.90;;;;;;5045803;28;20459;-77
2022/01/08 04:40:48;;;;;;;7.68;3.33;;;-1.10;99.90;;;;;;5046627;28;20053;-78
2022/01/08 04:43:14;;;;;;;6.75;3.10;;;-1.00;99.90;;;;;;5028853;28;20056;-77
2022/01/08 04:45:40;;;;;;;4.60;2.53;;;-1.10;99.90;;;;;;5046182;28;20052;-77
2022/01/08 04:48:06;;;;;;;7.03;3.80;;;-1.20;99.90;;;;;;5046372;28;20436;-77
2022/01/08 04:50:33;;;;;;;6.78;3.70;;;-1.10;99.90;;;;;;5046164;28;20040;-77
2022/01/08 04:52:58;;;;;;;6.32;3.03;;;-1.10;99.90;;;;;;5046240;28;20069;-77
2022/01/08 04:55:25;;;;;;;12.18;3.50;;;-1.20;99.90;;;;;;5045954;28;20083;-78
2022/01/08 04:57:50;;;;;;;7.90;3.25;;;-1.10;99.90;;;;;;5044607;28;20049;-78
2022/01/08 05:00:18;;;;;;;8.25;3.85;;;-1.10;99.90;;;;;;5028145;28;20040;-78
2022/01/08 05:02:44;;;;;;;10.38;4.03;;;-1.10;99.90;;;;;;5044675;28;20030;-77
2022/01/08 05:05:10;;;;;;;10.02;3.50;;;-1.20;99.90;;;;;;5045863;28;20030;-77
2022/01/08 05:07:36;;;;;;;10.05;3.88;;;-1.10;99.90;;;;;;5028315;28;20033;-77
2022/01/08 05:10:03;;;;;;;7.28;3.22;;;-1.10;99.90;;;;;;5045930;28;20036;-77
2022/01/08 05:12:29;;;;;;;6.10;3.40;;;-1.20;99.90;;;;;;5045901;28;20120;-77
2022/01/08 05:14:56;;;;;;;5.88;3.53;;;-1.20;99.90;;;;;;5044319;28;20370;-78
2022/01/08 05:17:28;;;;;;;9.77;3.50;;;-1.10;99.90;;;;;;5045905;28;20059;-77
2022/01/08 05:19:54;;;;;;;10.00;3.38;;;-1.30;99.90;;;;;;5045737;28;20064;-77
2022/01/08 05:22:29;;;;;;;5.47;3.15;;;-1.30;99.90;;;;;;5045758;28;20063;-77
2022/01/08 05:24:55;;;;;;;6.28;2.63;;;-1.30;99.90;;;;;;5045551;28;20049;-77
2022/01/08 05:27:21;;;;;;;7.47;2.42;;;-1.30;99.90;;;;;;5045648;28;20037;-77
2022/01/08 05:29:49;;;;;;;6.90;2.50;;;-1.40;99.90;;;;;;5045702;28;20056;-78
2022/01/08 05:32:18;;;;;;;8.90;2.92;;;-1.50;99.90;;;;;;5045370;28;20025;-77
2022/01/08 05:34:46;;;;;;;7.43;2.45;;;-1.40;99.90;;;;;;5045467;28;20033;-77
2022/01/08 05:37:12;;;;;;;6.13;2.70;;;-1.30;99.90;;;;;;5027951;28;20037;-77
2022/01/08 05:39:38;;;;;;;5.57;2.72;;;-1.30;99.90;;;;;;5045622;28;20124;-77
2022/01/08 05:42:05;;;;;;;7.63;3.10;;;-1.30;99.90;;;;;;5027820;28;20029;-77
2022/01/08 05:44:30;;;;;;;6.82;3.05;;;-1.40;99.90;;;;;;5027717;28;20032;-77
2022/01/08 05:46:56;;;;;;;6.75;2.53;;;-1.30;99.90;;;;;;5027691;28;20029;-78
2022/01/08 05:49:22;;;;;;;7.38;2.60;;;-1.40;99.90;;;;;;5030793;28;20060;-78
2022/01/08 05:51:47;;;;;;;6.43;2.70;;;-1.40;99.90;;;;;;5031852;28;20041;-77
2022/01/08 05:54:13;;;;;;;4.97;2.85;;;-1.50;99.90;;;;;;5031783;28;20060;-77
2022/01/08 05:56:38;;;;;;;10.07;3.05;;;-1.50;99.90;;;;;;5049202;28;20030;-77
2022/01/08 05:59:04;;;;;;;9.13;2.60;;;-1.40;99.90;;;;;;5049478;28;20105;-77
2022/01/08 06:01:33;;;;;;;7.03;2.92;;;-1.30;99.90;;;;;;5049505;28;20042;-77
2022/01/08 06:03:59;;;;;;;7.13;3.35;;;-1.40;99.90;;;;;;5049263;28;20144;-77
2022/01/08 06:06:24;;;;;;;9.38;3.47;;;-1.30;99.90;;;;;;5048964;28;20029;-77
2022/01/08 06:08:50;;;;;;;9.80;4.13;;;-1.50;99.90;;;;;;5049198;28;20035;-77
2022/01/08 06:11:15;;;;;;;7.93;3.90;;;-1.40;99.90;;;;;;5049023;28;20056;-77
2022/01/08 06:13:41;;;;;;;11.77;3.17;;;-1.30;99.90;;;;;;5031283;28;20037;-77
2022/01/08 06:16:06;;;;;;;7.10;3.20;;;-1.30;99.90;;;;;;5048674;28;20081;-77
2022/01/08 06:18:32;;;;;;;8.38;2.97;;;-1.50;99.90;;;;;;5049130;28;20037;-77
2022/01/08 06:20:59;;;;;;;6.85;3.25;;;-1.50;99.90;;;;;;5048771;28;20041;-77
2022/01/08 06:23:26;;;;;;;7.90;3.30;;;-1.50;99.90;;;;;;5031120;28;20037;-77
2022/01/08 06:25:51;;;;;;;10.98;3.63;;;-1.60;99.90;;;;;;5030596;28;20045;-77
2022/01/08 06:28:17;;;;;;;9.65;3.80;;;-1.60;99.90;;;;;;5047633;28;20039;-77
2022/01/08 06:30:43;;;;;;;9.27;3.33;;;-1.60;99.90;;;;;;5047502;28;20056;-77
2022/01/08 06:33:09;;;;;;;10.65;3.80;;;-1.50;99.90;;;;;;5047170;28;20084;-77
2022/01/08 06:35:34;;;;;;;10.57;4.35;;;-1.50;99.90;;;;;;5030803;28;20089;-77
2022/01/08 06:38:00;;;;;;;9.10;4.22;;;-1.40;99.90;;;;;;5048644;28;20448;-78
2022/01/08 06:40:26;;;;;;;12.02;5.20;;;-1.30;99.90;;;;;;5030625;28;20075;-78
2022/01/08 06:42:51;;;;;;;9.07;5.13;;;-1.20;99.90;;;;;;5030703;28;20144;-77
2022/01/08 06:45:17;;;;;;;11.40;4.68;;;-1.30;99.90;;;;;;5048466;28;20030;-77
2022/01/08 06:47:45;;;;;;;13.07;4.72;;;-1.30;99.90;;;;;;5030613;28;20036;-78
2022/01/08 06:50:12;;;;;;;11.23;5.13;;;-1.40;99.90;;;;;;5048276;28;20034;-77
2022/01/08 06:52:38;;;;;;;13.70;5.95;;;-1.30;99.90;;;;;;5048212;28;20048;-77
2022/01/08 06:55:04;;;;;;;10.57;4.70;;;-1.30;99.90;;;;;;5030266;28;20088;-77
2022/01/08 06:57:30;;;;;;;12.43;5.30;;;-1.40;99.90;;;;;;5048064;28;20045;-78
2022/01/08 06:59:56;;;;;;;12.25;5.80;;;-1.50;99.90;;;;;;5047438;28;20033;-77
2022/01/08 07:02:22;;;;;;;11.38;4.55;;;-1.50;99.90;;;;;;5048171;28;20049;-77
2022/01/08 07:04:47;;;;;;;7.72;3.58;;;-1.50;99.90;;;;;;5048027;28;20021;-77
2022/01/08 07:07:13;;;;;;;10.80;4.93;;;-1.40;99.90;;;;;;5048199;28;20040;-77
2022/01/08 07:09:38;;;;;;;11.07;5.80;;;-1.10;99.90;;;;;;5048169;28;20033;-77
2022/01/08 07:12:04;;;;;;;11.98;6.13;;;-1.20;99.90;;;;;;5048056;28;20041;-77
2022/01/08 07:14:30;;;;;;;12.90;5.50;;;-1.10;99.90;;;;;;5048060;28;20022;-77
2022/01/08 07:16:57;;;;;;;12.45;5.75;;;-1.20;99.90;;;;;;5048264;28;20040;-77
2022/01/08 07:19:23;;;;;;;9.70;6.22;;;-1.20;99.90;;;;;;5047933;28;20470;-77
2022/01/08 07:21:49;;;;;;;12.90;6.13;;;-1.10;99.90;;;;;;5047871;28;20056;-77
2022/01/08 07:24:15;;;;;;;14.00;6.55;;;-1.10;99.90;;;;;;5047878;28;20041;-77
2022/01/08 07:26:40;;;;;;;11.18;6.25;;;-1.10;99.90;;;;;;5047493;28;20037;-77
2022/01/08 07:29:06;;;;;;;15.10;7.07;;;-1.10;99.90;;;;;;5030147;28;20025;-77
2022/01/08 07:31:32;;;;;;;16.30;5.85;;;-1.00;99.90;;;;;;5047551;28;20036;-77
2022/01/08 07:33:57;;;;;;;12.57;6.10;;;-1.00;99.90;;;;;;5029796;28;20041;-77
2022/01/08 07:36:23;;;;;;;11.80;5.72;;;-1.00;99.90;;;;;;5047441;28;20086;-77
2022/01/08 07:38:49;;;;;;;14.02;5.88;;;-0.90;99.90;;;;;;5047607;28;20032;-77
2022/01/08 07:41:15;;;;;;;12.98;5.30;;;-0.90;99.90;;;;;;5029634;28;20462;-77
2022/01/08 07:43:40;;;;;;;15.30;6.95;;;-0.90;99.90;;;;;;5029686;28;20040;-77
2022/01/08 07:46:06;;;;;;;10.13;5.47;;;-0.90;99.90;;;;;;5043407;28;20097;-77
2022/01/08 07:48:32;;;;;;;11.15;5.80;;;-0.90;99.90;;;;;;5028103;28;20033;-79
2022/01/08 07:50:58;;;;;;;13.80;6.03;;;-0.80;99.90;;;;;;5046086;28;20032;-78
2022/01/08 07:53:24;;;;;;;10.10;6.00;;;-0.80;99.90;;;;;;5046510;28;20111;-78
2022/01/08 07:56:10;;;;;;;14.70;7.05;;;-0.80;99.90;;;;;;5028300;28;20033;-77
2022/01/08 07:58:35;;;;;;;12.13;6.53;;;-0.70;99.90;;;;;;4984782;28;20478;-79
2022/01/08 08:01:01;;;;;;;17.27;8.23;;;-0.60;99.90;;;;;;4984535;28;20039;-77
2022/01/08 08:03:26;;;;;;;19.80;9.85;;;-0.50;99.90;;;;;;4968241;28;20039;-78
2022/01/08 08:05:52;;;;;;;14.15;8.07;;;-0.50;99.90;;;;;;4996732;28;20030;-79
2022/01/08 08:08:21;;;;;;;15.95;8.65;;;-0.40;99.90;;;;;;5004473;28;20530;-79
2022/01/08 08:10:50;;;;;;;15.00;9.07;;;-0.40;99.90;;;;;;4987818;28;20513;-79
2022/01/08 08:13:20;;;;;;;18.38;9.48;;;-0.30;99.90;;;;;;4986774;28;20038;-78
2022/01/08 08:15:46;;;;;;;15.18;8.50;;;-0.30;99.90;;;;;;5003770;28;20038;-77
2022/01/08 08:18:12;;;;;;;15.90;8.70;;;-0.30;99.90;;;;;;5004125;28;20509;-79
2022/01/08 08:20:38;;;;;;;18.00;8.20;;;-0.30;99.90;;;;;;5004035;28;20027;-80
2022/01/08 08:23:04;;;;;;;15.68;8.15;;;-0.30;99.90;;;;;;5004167;28;20069;-80
2022/01/08 08:25:30;;;;;;;17.67;9.63;;;-0.20;99.90;;;;;;4987772;28;20034;-79
2022/01/08 08:27:56;;;;;;;14.18;8.73;;;-0.20;99.90;;;;;;5004349;28;20064;-81
2022/01/08 08:30:22;;;;;;;14.27;7.53;;;-0.10;99.90;;;;;;5003943;28;20049;-79
2022/01/08 08:32:48;;;;;;;11.82;7.05;;;0.00;99.90;;;;;;4997341;28;20046;-81
2022/01/08 08:35:14;;;;;;;12.43;7.88;;;-0.10;99.90;;;;;;4971685;28;20069;-84
2022/01/08 08:37:40;;;;;;;12.98;6.85;;;-0.10;99.90;;;;;;4986722;28;20490;-79
2022/01/08 08:40:08;;;;;;;16.10;8.43;;;0.00;99.90;;;;;;4986906;28;20074;-78
2022/01/08 08:42:34;;;;;;;13.93;8.20;;;0.10;99.90;;;;;;4969263;28;20039;-78
2022/01/08 08:45:00;;;;;;;12.45;7.50;;;0.20;99.90;;;;;;4986316;28;20086;-78
2022/01/08 08:47:25;;;;;;;15.27;7.88;;;0.20;99.90;;;;;;4986599;28;20077;-77
2022/01/08 08:49:51;;;;;;;14.00;7.90;;;0.30;99.90;;;;;;4986550;28;20037;-80
2022/01/08 08:52:17;;;;;;;14.70;7.75;;;0.20;99.90;;;;;;4986453;28;20116;-78
2022/01/08 08:54:43;;;;;;;15.23;9.27;;;0.40;99.90;;;;;;4986381;28;20057;-80
2022/01/08 08:57:09;;;;;;;12.98;7.97;;;0.50;99.90;;;;;;4988708;28;20050;-78
2022/01/08 08:59:36;;;;;;;13.18;8.43;;;0.40;99.90;;;;;;5005596;28;20057;-78
2022/01/08 09:02:02;;;;;;;17.90;8.27;;;0.50;99.90;;;;;;5005828;28;20042;-78
2022/01/08 09:04:28;;;;;;;14.65;7.50;;;0.50;99.90;;;;;;5006135;28;20041;-79
2022/01/08 09:06:57;;;;;;;12.73;8.18;;;0.50;99.90;;;;;;5025309;28;20093;-79
2022/01/08 09:09:25;;;;;;;15.55;8.48;;;0.70;99.90;;;;;;5025364;28;20026;-81
2022/01/08 09:11:51;;;;;;;16.20;10.43;;;0.70;99.90;;;;;;5025373;28;20030;-81
2022/01/08 09:14:17;;;;;;;20.52;8.10;;;0.70;99.90;;;;;;5023516;28;20061;-83
2022/01/08 09:16:54;;;;;;;14.07;7.35;;;0.70;99.90;;;;;;5025603;28;20033;-81
2022/01/08 09:19:21;;;;;;;15.73;7.85;;;0.70;99.90;;;;;;5025469;28;20044;-79
2022/01/08 09:21:48;;;;;;;16.45;10.13;;;0.80;99.90;;;;;;5025275;28;20481;-81
2022/01/08 09:24:15;;;;;;;20.08;11.02;;;0.80;99.90;;;;;;5024985;28;20045;-78
2022/01/08 09:26:41;;;;;;;18.20;11.20;;;0.80;99.90;;;;;;5025065;28;20048;-78
2022/01/08 09:29:07;;;;;;;19.73;12.02;;;0.90;99.90;;;;;;5025134;28;20026;-78
2022/01/08 09:31:33;;;;;;;15.52;9.45;;;0.90;99.90;;;;;;5025056;28;20454;-77
2022/01/08 09:34:00;;;;;;;18.02;11.68;;;0.90;99.90;;;;;;5023818;28;20050;-77
2022/01/08 09:36:26;;;;;;;18.27;9.90;;;1.00;99.90;;;;;;5023223;28;20495;-77
2022/01/08 09:38:52;;;;;;;21.38;13.20;;;1.00;99.90;;;;;;5023186;28;20390;-77
2022/01/08 09:41:18;;;;;;;19.80;11.55;;;1.10;99.90;;;;;;5024171;28;20048;-77
2022/01/08 09:43:44;;;;;;;20.15;11.25;;;1.10;99.90;;;;;;5025190;28;20034;-77
2022/01/08 09:46:13;;;;;;;20.10;11.70;;;1.10;99.90;;;;;;5025217;28;20022;-78
2022/01/08 09:48:38;;;;;;;20.58;10.95;;;1.10;99.90;;;;;;5025109;28;20097;-82
2022/01/08 09:51:04;;;;;;;16.85;9.75;;;1.10;99.90;;;;;;5025246;28;20030;-80
2022/01/08 09:53:30;;;;;;;17.40;10.60;;;1.20;99.90;;;;;;5024962;28;20064;-78
2022/01/08 09:55:56;;;;;;;19.23;9.85;;;1.30;99.90;;;;;;5024798;28;20033;-78
2022/01/08 09:58:22;;;;;;;17.88;10.60;;;1.30;99.90;;;;;;5038778;28;20068;-78
2022/01/08 10:00:47;;;;;;;14.27;8.95;;;1.40;99.90;;;;;;5044764;28;20029;-80
2022/01/08 10:03:19;;;;;;;21.27;11.88;;;1.40;99.90;;;;;;5026956;28;20056;-78
2022/01/08 10:05:48;;;;;;;15.82;9.50;;;1.50;99.90;;;;;;5043487;28;20041;-77
2022/01/08 10:08:15;;;;;;;21.40;11.25;;;1.50;99.90;;;;;;5044549;28;20053;-79
2022/01/08 10:10:41;;;;;;;16.05;9.88;;;1.50;99.90;;;;;;5026883;28;20069;-78
2022/01/08 10:13:22;;;;;;;24.83;13.88;;;1.60;99.90;;;;;;5044557;28;20069;-79
2022/01/08 10:18:36;;;;;;;23.33;13.80;;;1.70;99.90;;;;;;5044697;28;20036;-78
2022/01/08 10:21:27;;;;;;;24.48;12.98;;;1.70;99.90;;;;;;5044693;28;20030;-79
2022/01/08 10:24:05;;;;;;;27.13;15.85;;;1.80;99.90;;;;;;5045264;28;20055;-78
2022/01/08 10:26:36;;;;;;;29.30;16.20;;;1.80;99.90;;;;;;5044434;28;20030;-82
2022/01/08 10:29:26;;;;;;;34.00;18.15;;;1.80;99.90;;;;;;5026697;28;20052;-78
2022/01/08 10:31:53;;;;;;;30.13;16.20;;;1.90;99.90;;;;;;5026431;28;20069;-82
2022/01/08 10:34:21;;;;;;;29.25;16.30;;;1.80;99.90;;;;;;5026582;28;20041;-81
2022/01/08 10:36:54;;;;;;;27.83;13.98;;;1.90;99.90;;;;;;5047813;28;20116;-78
2022/01/08 10:39:39;;;;;;;28.20;14.75;;;1.90;99.90;;;;;;5048156;28;20037;-82
2022/01/08 10:42:17;;;;;;;34.60;17.77;;;1.90;99.90;;;;;;5048123;28;20057;-80
2022/01/08 10:44:46;;;;;;;38.17;18.48;;;1.90;99.90;;;;;;5048046;28;20064;-78
2022/01/08 10:47:16;;;;;;;28.08;15.90;;;2.00;99.90;;;;;;5048059;28;20102;-78
2022/01/08 10:50:05;;;;;;;24.60;13.70;;;2.10;99.90;;;;;;5030052;28;20038;-77
2022/01/08 10:52:42;;;;;;;25.08;13.23;;;2.10;99.90;;;;;;5047597;28;20073;-79
2022/01/08 10:55:08;;;;;;;26.13;12.15;;;2.20;99.90;;;;;;5029930;28;20057;-79
2022/01/08 10:57:36;;;;;;;29.20;13.88;;;2.30;99.90;;;;;;5029567;28;20052;-79
2022/01/08 11:00:07;;;;;;;25.92;14.52;;;2.30;99.90;;;;;;5047642;28;20067;-78
2022/01/08 11:02:33;;;;;;;24.98;13.57;;;2.30;99.90;;;;;;5029912;28;20496;-79
2022/01/08 11:05:03;;;;;;;32.88;17.00;;;2.30;99.90;;;;;;5047459;28;20087;-77
2022/01/08 11:07:32;;;;;;;33.97;15.95;;;2.30;99.90;;;;;;5029626;28;20456;-79
2022/01/08 11:10:06;;;;;;;28.00;15.75;;;2.30;99.90;;;;;;5047511;28;20033;-78
2022/01/08 11:12:37;;;;;;;33.80;16.08;;;2.50;99.90;;;;;;5047517;28;20049;-77
2022/01/08 11:17:55;;;;;;;28.70;14.13;;;2.70;99.90;;;;;;5047555;28;20029;-77
2022/01/08 11:20:30;;;;;;;24.90;13.30;;;2.70;99.90;;;;;;5047335;28;20081;-80
2022/01/08 11:23:00;;;;;;;25.73;11.65;;;2.70;99.90;;;;;;5047186;28;20138;-78
2022/01/08 11:25:28;;;;;;;34.28;16.17;;;2.80;99.90;;;;;;5047094;28;20053;-78
2022/01/08 11:28:10;;;;;;;31.63;15.98;;;2.70;99.90;;;;;;5029545;28;20034;-78
2022/01/08 11:30:38;;;;;;;35.58;17.80;;;2.80;99.90;;;;;;5029041;28;20036;-77
2022/01/08 11:33:17;;;;;;;32.10;15.40;;;2.80;99.90;;;;;;5047049;28;20124;-81
2022/01/08 11:35:45;;;;;;;28.40;14.30;;;2.90;99.90;;;;;;5046831;28;20032;-78
2022/01/08 11:38:13;;;;;;;28.13;13.13;;;3.00;99.90;;;;;;5046817;28;20041;-77
2022/01/08 11:40:47;;;;;;;25.90;13.25;;;2.90;99.90;;;;;;5029189;28;20039;-77
2022/01/08 11:43:18;;;;;;;28.95;13.88;;;2.90;99.90;;;;;;5047038;28;20029;-77
2022/01/08 11:46:00;;;;;;;26.33;13.07;;;2.90;99.90;;;;;;5030788;28;20454;-76
2022/01/08 11:48:31;;;;;;;30.05;16.38;;;3.00;99.90;;;;;;5026849;28;20057;-77
2022/01/08 11:50:59;;;;;;;23.75;12.68;;;3.00;99.90;;;;;;5026774;28;20034;-77
2022/01/08 11:53:30;;;;;;;31.95;15.45;;;3.10;99.90;;;;;;5008947;28;20042;-78
2022/01/08 11:56:03;;;;;;;32.33;15.25;;;3.10;99.90;;;;;;5008851;28;20056;-76
2022/01/08 11:58:38;;;;;;;26.85;13.80;;;3.20;99.90;;;;;;5026434;28;20073;-76
2022/01/08 12:01:12;;;;;;;32.33;14.02;;;3.20;99.90;;;;;;5026222;28;20030;-76
2022/01/08 12:03:50;;;;;;;25.77;10.95;;;3.30;99.90;;;;;;5026363;28;20097;-77
2022/01/08 12:06:18;;;;;;;21.73;11.52;;;3.30;99.90;;;;;;5023679;28;20037;-76
2022/01/08 12:09:20;;;;;;;19.85;10.38;;;3.30;99.90;;;;;;5046178;28;20029;-79
2022/01/08 12:11:52;;;;;;;25.13;12.75;;;3.30;99.90;;;;;;5046060;28;20044;-81
2022/01/08 12:14:20;;;;;;;26.55;12.40;;;3.30;99.90;;;;;;5045736;28;20068;-78
2022/01/08 12:16:49;;;;;;;28.65;11.18;;;3.40;99.90;;;;;;5045979;28;20040;-78
2022/01/08 12:19:31;;;;;;;26.30;11.98;;;3.40;99.90;;;;;;5046061;28;20026;-82
2022/01/08 12:21:57;;;;;;;24.35;11.38;;;3.40;99.90;;;;;;5045872;28;20375;-78
2022/01/08 12:24:26;;;;;;;20.20;10.98;;;3.30;99.90;;;;;;5045554;28;20033;-77
2022/01/08 12:26:57;;;;;;;22.70;11.23;;;3.30;99.90;;;;;;5045557;28;20021;-79
2022/01/08 12:29:37;;;;;;;21.30;9.30;;;3.30;99.90;;;;;;5045586;28;20034;-78
2022/01/08 12:32:29;;;;;;;20.98;10.07;;;3.30;99.90;;;;;;5045508;28;20025;-76
2022/01/08 12:35:24;;;;;;;16.90;8.43;;;3.30;99.90;;;;;;5045619;28;20034;-82
2022/01/08 12:37:57;;;;;;;22.77;9.25;;;3.30;99.90;;;;;;5043185;28;20041;-77
2022/01/08 12:40:39;;;;;;;19.73;10.15;;;3.30;99.90;;;;;;5044150;28;20033;-79
2022/01/08 12:43:23;;;;;;;18.85;8.75;;;3.30;99.90;;;;;;5045607;28;20049;-77
2022/01/08 12:45:50;;;;;;;21.60;10.40;;;3.30;99.90;;;;;;5027127;28;20041;-77
2022/01/08 12:48:20;;;;;;;19.70;8.20;;;3.30;99.90;;;;;;5027598;28;20029;-77
2022/01/08 12:50:46;;;;;;;18.80;7.60;;;3.30;99.90;;;;;;5043554;28;20033;-77
2022/01/08 12:53:26;;;;;;;20.08;8.23;;;3.40;99.90;;;;;;5027173;28;20045;-77
2022/01/08 12:59:28;;;;;;;17.60;6.75;;;3.40;99.90;;;;;;5033575;28;20020;-77
2022/01/08 13:01:54;;;;;;;13.07;5.80;;;3.50;99.90;;;;;;5045271;28;20063;-78
2022/01/08 13:04:22;;;;;;;16.55;6.70;;;3.40;99.90;;;;;;5044092;28;20034;-78
2022/01/08 13:06:48;;;;;;;13.30;6.53;;;3.40;99.90;;;;;;5027336;28;20096;-76
2022/01/08 13:09:15;;;;;;;16.55;5.45;;;3.40;99.90;;;;;;5030221;28;20500;-77
2022/01/08 13:11:42;;;;;;;12.45;5.38;;;3.40;99.90;;;;;;5028637;28;20038;-77
2022/01/08 13:14:16;;;;;;;14.43;6.28;;;3.40;99.90;;;;;;5045701;28;20547;-77
2022/01/08 13:16:51;;;;;;;14.15;6.32;;;3.40;99.90;;;;;;5011612;28;20037;-77
2022/01/08 13:19:19;;;;;;;15.88;6.18;;;3.40;99.90;;;;;;5045359;28;20037;-77